Data for 03/10/2017

Time Sea-Level Adjusted Pressure Absolute Pressure Temperature Relative Humidity Dew Point   
(mb) (inHg) (mb) (inHg) (C) (F) (%) (C) (F)
00:05 1020 30.12 849 25.07 -7.2 19.1 75 -10.9 12.3
00:10 1020 30.12 849 25.07 -7.2 19 75 -10.9 12.3
00:15 1020 30.12 849 25.07 -7.2 19.1 74 -11.1 12
00:20 1020 30.12 849 25.07 -7.2 19.1 75 -11 12.3
00:25 1020 30.12 849 25.07 -7.1 19.2 75 -10.9 12.4
00:30 1020 30.12 849 25.07 -7.1 19.2 75 -10.8 12.5
00:35 1020 30.12 849 25.07 -7.1 19.3 76 -10.6 12.9
00:40 1020 30.12 849 25.07 -7 19.5 76 -10.6 13
00:45 1020 30.12 849 25.07 -7 19.5 75 -10.6 12.9
00:50 1020 30.12 849 25.07 -7 19.4 75 -10.7 12.8
00:55 1020 30.12 849 25.07 -6.9 19.5 76 -10.5 13
01:00 1020 30.12 849 25.07 -6.8 19.7 76 -10.3 13.5
01:05 1020 30.12 849 25.07 -6.7 19.9 76 -10.3 13.4
01:10 1019 30.09 849 25.07 -6.7 20 76 -10.2 13.7
01:15 1019 30.09 849 25.07 -6.6 20.1 76 -10.2 13.6
01:20 1019 30.09 849 25.07 -6.5 20.2 76 -10 13.9
01:25 1019 30.09 849 25.07 -6.5 20.4 77 -9.9 14.1
01:30 1019 30.09 849 25.07 -6.4 20.5 76 -9.9 14.2
01:35 1019 30.09 849 25.07 -6.3 20.7 76 -9.8 14.3
01:40 1019 30.09 849 25.07 -6.2 20.8 76 -9.8 14.3
01:45 1019 30.09 848 25.04 -6.2 20.9 75 -9.9 14.3
01:50 1019 30.09 848 25.04 -6.2 20.8 75 -9.9 14.1
01:55 1019 30.09 848 25.04 -6.2 20.8 75 -10 14.1
02:00 1019 30.09 848 25.04 -6.2 20.8 75 -9.9 14.2
02:05 1019 30.09 848 25.04 -6.2 20.8 75 -9.9 14.2
02:10 1019 30.09 848 25.04 -6.2 20.9 76 -9.7 14.5
02:15 1019 30.09 848 25.04 -6.1 21.1 76 -9.7 14.5
02:20 1019 30.09 848 25.04 -6 21.2 76 -9.6 14.7
02:25 1019 30.09 848 25.04 -6 21.3 76 -9.5 15
02:30 1019 30.09 848 25.04 -5.9 21.4 76 -9.5 14.9
02:35 1018 30.06 848 25.04 -5.8 21.5 76 -9.5 15
02:40 1018 30.06 848 25.04 -5.8 21.6 76 -9.4 15
02:45 1018 30.06 848 25.04 -5.7 21.7 76 -9.3 15.2
02:50 1018 30.06 848 25.04 -5.6 21.9 75 -9.3 15.3
02:55 1018 30.06 848 25.04 -5.5 22 75 -9.3 15.3
03:00 1018 30.06 848 25.04 -5.5 22.1 75 -9.2 15.5
03:05 1018 30.06 847 25.01 -5.4 22.2 75 -9.1 15.6
03:10 1018 30.06 847 25.01 -5.4 22.3 75 -9.1 15.6
03:15 1018 30.06 847 25.01 -5.4 22.3 76 -9.1 15.7
03:20 1018 30.06 847 25.01 -5.4 22.3 76 -8.9 16
03:25 1018 30.06 847 25.01 -5.3 22.5 77 -8.8 16.2
03:30 1018 30.06 847 25.01 -5.2 22.7 77 -8.7 16.4
03:35 1018 30.06 847 25.01 -5.1 22.8 77 -8.5 16.7
03:40 1018 30.06 847 25.01 -5 23 77 -8.4 16.8
03:45 1018 30.06 847 25.01 -4.9 23.3 77 -8.4 16.9
03:50 1018 30.06 847 25.01 -4.8 23.4 77 -8.2 17.2
03:55 1018 30.06 847 25.01 -4.7 23.6 76 -8.2 17.2
04:00 1018 30.06 847 25.01 -4.7 23.6 76 -8.3 17.1
04:05 1018 30.06 847 25.01 -4.7 23.6 76 -8.2 17.2
04:10 1018 30.06 847 25.01 -4.6 23.8 76 -8.2 17.3
04:15 1018 30.06 847 25.01 -4.6 23.8 76 -8.2 17.3
04:20 1018 30.06 847 25.01 -4.6 23.7 77 -8.1 17.5
04:25 1018 30.06 847 25.01 -4.5 23.9 77 -8 17.6
04:30 1018 30.06 847 25.01 -4.4 24.1 77 -7.8 18
04:35 1018 30.06 847 25.01 -4.3 24.3 77 -7.7 18.1
04:40 1018 30.06 847 25.01 -4.2 24.5 76 -7.7 18.1
04:45 1018 30.06 847 25.01 -4.2 24.5 77 -7.6 18.3
04:50 1018 30.06 847 25.01 -4.1 24.6 77 -7.5 18.4
04:55 1018 30.06 847 25.01 -4 24.8 77 -7.4 18.6
05:00 1018 30.06 847 25.01 -4 24.8 77 -7.4 18.7
05:05 1017 30.03 847 25.01 -4 24.8 78 -7.3 18.8
05:10 1018 30.06 847 25.01 -4 24.8 78 -7.3 18.8
05:15 1018 30.06 847 25.01 -3.9 24.9 78 -7.3 18.9
05:20 1018 30.06 847 25.01 -3.8 25.1 78 -7.2 19.1
05:25 1018 30.06 847 25.01 -3.7 25.4 77 -7.1 19.2
05:30 1018 30.06 847 25.01 -3.5 25.7 77 -7 19.4
05:35 1018 30.06 847 25.01 -3.5 25.8 77 -7 19.5
05:40 1018 30.06 847 25.01 -3.3 26 77 -6.8 19.7
05:45 1018 30.06 847 25.01 -3.4 25.8 78 -6.8 19.8
05:50 1018 30.06 847 25.01 -3.5 25.6 77 -7 19.5
05:55 1018 30.06 847 25.01 -3.6 25.4 78 -7 19.4
06:00 1018 30.06 847 25.01 -3.7 25.4 78 -7.1 19.3
06:05 1018 30.06 847 25.01 -3.7 25.3 78 -6.9 19.5
06:10 1018 30.06 847 25.01 -3.6 25.5 78 -6.9 19.6
06:15 1018 30.06 847 25.01 -3.5 25.7 79 -6.7 19.9
06:20 1018 30.06 847 25.01 -3.2 26.2 76 -6.8 19.7
06:25 1018 30.06 847 25.01 -3.3 26.1 79 -6.5 20.3
06:30 1018 30.06 847 25.01 -3.2 26.2 80 -6.3 20.7
06:35 1018 30.06 847 25.01 -3.5 25.8 81 -6.3 20.7
06:40 1018 30.06 847 25.01 -3.7 25.4 83 -6.1 20.9
06:45 1018 30.06 847 25.01 -3.7 25.4 83 -6.2 20.9
06:50 1018 30.06 847 25.01 -3.8 25.2 83 -6.2 20.9
06:55 1018 30.06 847 25.01 -4 24.8 84 -6.2 20.8
07:00 1018 30.06 847 25.01 -4 24.9 84 -6.2 20.8
07:05 1018 30.06 847 25.01 -3.9 25 83 -6.4 20.5
07:10 1018 30.06 847 25.01 -3.8 25.1 84 -6.2 20.8
07:15 1018 30.06 847 25.01 -3.8 25.1 85 -6 21.2
07:20 1018 30.06 847 25.01 -3.8 25.2 85 -5.9 21.4
07:25 1018 30.06 847 25.01 -3.7 25.4 85 -5.8 21.5
07:30 1018 30.06 847 25.01 -3.6 25.5 85 -5.8 21.6
07:35 1018 30.06 847 25.01 -3.5 25.6 85 -5.7 21.7
07:40 1018 30.06 847 25.01 -3.5 25.8 85 -5.6 21.9
07:45 1018 30.06 847 25.01 -3.3 26.1 85 -5.5 22.1
07:50 1018 30.06 847 25.01 -3.1 26.4 84 -5.4 22.3
07:55 1018 30.06 847 25.01 -2.9 26.7 84 -5.2 22.6
08:00 1018 30.06 847 25.01 -2.7 27.1 85 -4.9 23.1
08:05 1018 30.06 847 25.01 -2.5 27.6 84 -4.7 23.5
08:10 1018 30.06 847 25.01 -2.4 27.7 85 -4.7 23.6
08:15 1018 30.06 847 25.01 -2.2 28 85 -4.4 24.1
08:20 1018 30.06 847 25.01 -1.9 28.7 85 -4 24.7
08:25 1018 30.06 847 25.01 -1.5 29.2 84 -3.9 25
08:30 1018 30.06 847 25.01 -1.4 29.4 84 -3.9 25
08:35 1018 30.06 847 25.01 -1.4 29.4 84 -3.7 25.3
08:40 1018 30.06 847 25.01 -1.2 29.8 84 -3.6 25.5
08:45 1018 30.06 847 25.01 -0.8 30.6 82 -3.4 25.8
08:50 1018 30.06 847 25.01 -0.1 31.9 79 -3.2 26.2
08:55 1018 30.06 847 25.01 0.3 32.6 78 -3.1 26.4
09:00 1018 30.06 847 25.01 0.4 32.8 78 -2.9 26.8
09:05 1018 30.06 847 25.01 0.5 32.9 77 -3.1 26.5
09:10 1018 30.06 847 25.01 0.5 33 78 -2.9 26.8
09:15 1018 30.06 847 25.01 0.6 33.1 78 -2.9 26.8
09:20 1018 30.06 847 25.01 0.9 33.7 78 -2.5 27.4
09:25 1018 30.06 847 25.01 1.4 34.6 75 -2.5 27.5
09:30 1018 30.06 847 25.01 1.7 35 75 -2.2 28
09:35 1018 30.06 847 25.01 2.2 35.9 73 -2.1 28.2
09:40 1018 30.06 847 25.01 2.5 36.5 73 -1.8 28.7
09:45 1018 30.06 847 25.01 2.6 36.7 73 -1.7 29
09:50 1018 30.06 847 25.01 3 37.4 72 -1.6 29.2
09:55 1018 30.06 847 25.01 3.5 38.3 69 -1.7 28.9
10:00 1018 30.06 847 25.01 3.7 38.7 67 -1.9 28.7
10:05 1018 30.06 847 25.01 3.9 39 67 -1.7 28.9
10:10 1018 30.06 847 25.01 3.9 38.9 67 -1.7 29
10:15 1018 30.06 848 25.04 3.7 38.7 68 -1.6 29.1
10:20 1018 30.06 848 25.04 3.3 38 71 -1.4 29.4
10:25 1018 30.06 848 25.04 3.4 38.1 69 -1.8 28.7
10:30 1018 30.06 848 25.04 3.8 38.9 67 -1.6 29.1
10:35 1018 30.06 848 25.04 4.1 39.5 64 -2 28.4
10:40 1019 30.09 848 25.04 3.6 38.4 67 -1.9 28.5
10:45 1019 30.09 848 25.04 3.1 37.5 67 -2.5 27.4
10:50 1019 30.09 848 25.04 2.9 37.2 67 -2.7 27.2
10:55 1019 30.09 848 25.04 2.7 36.8 71 -2.1 28.2
11:00 1019 30.09 848 25.04 2.6 36.6 69 -2.6 27.2
11:05 1018 30.06 848 25.04 2.4 36.3 69 -2.7 27.1
11:10 1018 30.06 848 25.04 2.7 36.8 71 -2.2 28.1
11:15 1018 30.06 847 25.01 3.3 37.9 69 -1.9 28.6
11:20 1018 30.06 848 25.04 3.5 38.3 67 -2 28.5
11:25 1018 30.06 848 25.04 4.3 39.7 66 -1.4 29.4
11:30 1018 30.06 848 25.04 4.9 40.9 62 -1.7 29
11:35 1018 30.06 848 25.04 5.2 41.4 63 -1.3 29.6
11:40 1018 30.06 848 25.04 5.6 42.1 60 -1.5 29.3
11:45 1018 30.06 847 25.01 5.7 42.2 63 -0.9 30.4
11:50 1018 30.06 848 25.04 6.2 43.1 60 -1.1 30.1
11:55 1019 30.09 848 25.04 6.6 43.8 61 -0.4 31.3
12:00 1019 30.09 848 25.04 7.1 44.7 57 -0.8 30.5
12:05 1018 30.06 848 25.04 7.4 45.2 57 -0.7 30.8
12:10 1018 30.06 848 25.04 7.7 45.9 55 -0.7 30.7
12:15 1018 30.06 848 25.04 7.5 45.6 56 -0.5 31
12:20 1018 30.06 848 25.04 7.7 45.9 55 -0.7 30.7
12:25 1018 30.06 848 25.04 7.9 46.3 55 -0.6 30.9
12:30 1018 30.06 848 25.04 8.1 46.6 55 -0.4 31.3
12:35 1019 30.09 848 25.04 7.9 46.3 54 -0.7 30.7
12:40 1018 30.06 848 25.04 7.8 46 56 -0.4 31.2
12:45 1018 30.06 848 25.04 7.6 45.6 56 -0.5 31
12:50 1018 30.06 848 25.04 7.8 46.1 55 -0.7 30.8
12:55 1018 30.06 848 25.04 8.2 46.8 55 -0.2 31.7
13:00 1018 30.06 847 25.01 8.7 47.7 53 -0.3 31.5
13:05 1018 30.06 847 25.01 9.3 48.7 52 -0 31.9
13:10 1018 30.06 847 25.01 9.4 48.9 52 0.1 32.1
13:15 1018 30.06 847 25.01 9.2 48.6 55 0.6 33.1
13:20 1018 30.06 847 25.01 9.1 48.4 54 0.3 32.5
13:25 1018 30.06 847 25.01 9.4 48.9 51 -0.2 31.7
13:30 1018 30.06 847 25.01 9.7 49.4 50 -0.3 31.4
13:35 1018 30.06 847 25.01 10 50.1 49 -0.1 31.9
13:40 1018 30.06 847 25.01 10.3 50.5 48 -0.2 31.6
13:45 1018 30.06 847 25.01 10.7 51.2 45 -0.8 30.5
13:50 1018 30.06 847 25.01 11.1 52.1 41 -1.6 29.1
13:55 1018 30.06 847 25.01 11.4 52.5 39 -1.9 28.6
14:00 1018 30.06 847 25.01 11.5 52.7 39 -2 28.4
14:05 1018 30.06 847 25.01 11.3 52.4 39 -2.2 28.1
14:10 1018 30.06 847 25.01 11.2 52.2 38 -2.4 27.7
14:15 1018 30.06 847 25.01 11.2 52.1 39 -2.3 27.9
14:20 1018 30.06 847 25.01 11.3 52.4 39 -2 28.5
14:25 1018 30.06 847 25.01 11.3 52.4 38 -2.4 27.7
14:30 1018 30.06 847 25.01 11 51.8 39 -2.5 27.6
14:35 1018 30.06 847 25.01 11.1 52 39 -2.3 27.8
14:40 1018 30.06 847 25.01 11.2 52.1 38 -2.7 27.2
14:45 1018 30.06 847 25.01 10.9 51.7 38 -2.6 27.3
14:50 1018 30.06 847 25.01 11.1 51.9 39 -2.3 27.8
14:55 1018 30.06 847 25.01 11.2 52.2 39 -2.3 27.8
15:00 1018 30.06 847 25.01 10.8 51.4 38 -2.9 26.8
15:05 1018 30.06 847 25.01 11 51.8 36 -3.3 26
15:10 1018 30.06 847 25.01 11.4 52.5 37 -2.9 26.8
15:15 1018 30.06 847 25.01 11.4 52.5 35 -3.5 25.6
15:20 1018 30.06 847 25.01 11.4 52.5 36 -3.3 26.1
15:25 1018 30.06 847 25.01 11.1 51.9 37 -3.1 26.4
15:30 1018 30.06 847 25.01 10.4 50.8 37 -3.5 25.8
15:35 1018 30.06 847 25.01 10.4 50.6 37 -3.5 25.7
15:40 1018 30.06 847 25.01 10.4 50.8 38 -3.3 26
15:45 1018 30.06 847 25.01 10.6 51.1 40 -2.4 27.7
15:50 1018 30.06 847 25.01 10.4 50.8 38 -3.1 26.4
15:55 1018 30.06 847 25.01 10.2 50.3 38 -3.5 25.8
16:00 1018 30.06 847 25.01 10.1 50.3 39 -3.3 26.1
16:05 1018 30.06 847 25.01 10.4 50.7 39 -3 26.6
16:10 1018 30.06 847 25.01 10.3 50.6 39 -3.1 26.4
16:15 1018 30.06 848 25.04 10.3 50.6 39 -3 26.6
16:20 1018 30.06 848 25.04 10.3 50.6 39 -2.9 26.7
16:25 1018 30.06 848 25.04 10.2 50.3 39 -3 26.7
16:30 1018 30.06 848 25.04 10.2 50.3 39 -3 26.5
16:35 1018 30.06 848 25.04 10.3 50.5 40 -2.8 27
16:40 1018 30.06 848 25.04 10.2 50.3 39 -3 26.7
16:45 1018 30.06 848 25.04 9.9 49.9 40 -3 26.5
16:50 1018 30.06 848 25.04 9.9 49.8 40 -3 26.7
16:55 1018 30.06 848 25.04 10.1 50.1 40 -3 26.6
17:00 1018 30.06 848 25.04 10.2 50.4 39 -3.1 26.5
17:05 1018 30.06 848 25.04 10.2 50.3 39 -3.2 26.2
17:10 1018 30.06 848 25.04 10.2 50.4 39 -3.2 26.3
17:15 1018 30.06 848 25.04 10.4 50.6 39 -3.1 26.5
17:20 1018 30.06 848 25.04 10.4 50.7 38 -3.2 26.3
17:25 1018 30.06 848 25.04 10.4 50.7 38 -3.4 25.9
17:30 1018 30.06 848 25.04 10.3 50.6 38 -3.2 26.2
17:35 1018 30.06 848 25.04 10.2 50.4 38 -3.3 26
17:40 1019 30.09 848 25.04 10.3 50.5 39 -3.2 26.3
17:45 1019 30.09 848 25.04 10.2 50.4 39 -2.9 26.7
17:50 1019 30.09 848 25.04 10.2 50.4 39 -3 26.6
17:55 1019 30.09 848 25.04 9.9 49.9 39 -3.2 26.2
18:00 1019 30.09 848 25.04 9.6 49.2 40 -3.2 26.2
18:05 1019 30.09 848 25.04 9.6 49.2 39 -3.8 25.1
18:10 1019 30.09 848 25.04 9.6 49.3 39 -3.5 25.7
18:15 1019 30.09 848 25.04 9.6 49.2 40 -3.2 26.3
18:20 1019 30.09 848 25.04 9.5 49 40 -3.4 25.9
18:25 1019 30.09 848 25.04 9.4 49 38 -4.2 24.5
18:30 1019 30.09 848 25.04 9.4 48.9 40 -3.6 25.5
18:35 1019 30.09 848 25.04 9.2 48.6 40 -3.7 25.4
18:40 1019 30.09 849 25.07 9.1 48.3 41 -3.5 25.7
18:45 1019 30.09 849 25.07 8.8 47.8 42 -3.4 25.9
18:50 1020 30.12 849 25.07 8.4 47.2 43 -3.4 25.8
18:55 1020 30.12 849 25.07 8 46.4 43 -3.7 25.4
19:00 1020 30.12 849 25.07 7.8 46 43 -4 24.8
19:05 1020 30.12 849 25.07 7.6 45.6 43 -4.3 24.3
19:10 1020 30.12 849 25.07 7.4 45.3 41 -4.9 23.2
19:15 1020 30.12 849 25.07 7.3 45.1 42 -4.6 23.6
19:20 1020 30.12 849 25.07 7.2 45 42 -4.8 23.3
19:25 1020 30.12 849 25.07 7 44.6 44 -4.5 23.9
19:30 1020 30.12 849 25.07 6.6 43.9 48 -3.6 25.6
19:35 1020 30.12 850 25.1 5.9 42.7 49 -4 24.8
19:40 1020 30.12 850 25.1 5.7 42.3 48 -4.4 24.2
19:45 1021 30.15 850 25.1 5.7 42.3 49 -4.2 24.4
19:50 1021 30.15 850 25.1 5.6 42.1 49 -4.4 24.1
19:55 1021 30.15 850 25.1 5.6 42 48 -4.5 23.9
20:00 1021 30.15 850 25.1 5.5 41.9 48 -4.7 23.6
20:05 1021 30.15 850 25.1 5.7 42.2 47 -4.8 23.4
20:10 1021 30.15 850 25.1 5.8 42.5 46 -4.8 23.3
20:15 1021 30.15 850 25.1 5.8 42.4 48 -4.4 24
20:20 1021 30.15 850 25.1 5.7 42.3 47 -4.8 23.4
20:25 1021 30.15 850 25.1 5.7 42.3 48 -4.4 24
20:30 1021 30.15 850 25.1 5.6 42 48 -4.7 23.6
20:35 1021 30.15 850 25.1 5.6 42.1 48 -4.5 24
20:40 1021 30.15 850 25.1 5.9 42.7 44 -5.2 22.6
20:45 1021 30.15 850 25.1 6.1 43 45 -4.8 23.4
20:50 1021 30.15 850 25.1 5.9 42.7 47 -4.6 23.8
20:55 1021 30.15 850 25.1 5.8 42.4 47 -4.5 23.8
21:00 1021 30.15 850 25.1 5.5 42 48 -4.7 23.6
21:05 1021 30.15 850 25.1 5.2 41.4 52 -3.9 24.9
21:10 1021 30.15 850 25.1 4.8 40.7 52 -4.1 24.6
21:15 1021 30.15 850 25.1 4.8 40.6 53 -4 24.8
21:20 1021 30.15 850 25.1 4.7 40.5 53 -4.1 24.6
21:25 1021 30.15 850 25.1 4.7 40.5 52 -4.2 24.4
21:30 1021 30.15 850 25.1 4.5 40.1 54 -4 24.8
21:35 1021 30.15 850 25.1 4.2 39.5 54 -4.2 24.4
21:40 1021 30.15 850 25.1 4 39.3 55 -4.3 24.3
21:45 1021 30.15 850 25.1 3.9 39 55 -4.2 24.4
21:50 1021 30.15 850 25.1 3.7 38.6 55 -4.4 24
21:55 1021 30.15 850 25.1 3.5 38.3 56 -4.4 24.1
22:00 1021 30.15 850 25.1 3.4 38 57 -4.3 24.3
22:05 1021 30.15 850 25.1 3.4 38 56 -4.5 23.8
22:10 1021 30.15 850 25.1 3.3 38 57 -4.3 24.2
22:15 1021 30.15 850 25.1 3.3 37.9 57 -4.4 24.1
22:20 1021 30.15 850 25.1 3.2 37.8 57 -4.5 23.8
22:25 1021 30.15 850 25.1 3.2 37.8 57 -4.4 24.1
22:30 1021 30.15 850 25.1 3.1 37.6 58 -4.4 24.1
22:35 1021 30.15 850 25.1 3 37.4 57 -4.7 23.6
22:40 1021 30.15 850 25.1 3.2 37.8 55 -4.9 23.3
22:45 1021 30.15 850 25.1 3.3 37.9 56 -4.7 23.5
22:50 1021 30.15 850 25.1 3.1 37.6 56 -4.9 23.3
22:55 1021 30.15 850 25.1 3.1 37.6 56 -4.8 23.3
23:00 1021 30.15 850 25.1 3.1 37.6 56 -4.8 23.3
23:05 1021 30.15 850 25.1 3 37.4 57 -4.8 23.3
23:10 1021 30.15 850 25.1 2.5 36.5 60 -4.5 23.9
23:15 1021 30.15 851 25.13 1.8 35.3 61 -5 23
23:20 1021 30.15 851 25.13 2.1 35.8 59 -5.1 22.8
23:25 1021 30.15 851 25.13 2.5 36.5 56 -5.4 22.3
23:30 1022 30.18 851 25.13 3 37.4 55 -5.3 22.5
23:35 1022 30.18 851 25.13 3 37.4 56 -5 23
23:40 1022 30.18 851 25.13 2.9 37.2 56 -5 23.1
23:45 1022 30.18 851 25.13 2.6 36.8 58 -4.8 23.3
23:50 1022 30.18 851 25.13 2.3 36.2 60 -4.6 23.6
23:55 1022 30.18 851 25.13 2 35.6 62 -4.6 23.7
24:00 1022 30.18 851 25.13 1.8 35.3 62 -4.7 23.6